Time;durP1;ratioP1;P1;durP2;ratioP2;P2;SDS_P1;SDS_P2;PMS_P1;PMS_P2;Temp;Humidity;BMP_temperature;BMP_pressure;BME280_temperature;BME280_humidity;BME280_pressure;Samples;Min_cycle;Max_cycle;Signal;HPM_P1;HPM_P2
2024/03/24 00:01:08;;;;;;;31.60;19.60;;;;;;;0.68;100.00;99986.17;109505;1250;75684;-59
2024/03/24 00:03:36;;;;;;;34.00;20.00;;;;;;;0.62;100.00;99984.34;109502;1250;67403;-55
2024/03/24 00:06:04;;;;;;;33.60;18.90;;;;;;;0.57;100.00;99984.58;109480;1250;72722;-54
2024/03/24 00:08:31;;;;;;;29.30;19.50;;;;;;;0.51;100.00;99983.49;109502;1250;58983;-56
2024/03/24 00:10:59;;;;;;;33.00;19.70;;;;;;;0.45;100.00;99984.64;109470;1253;60064;-58
2024/03/24 00:13:26;;;;;;;36.10;21.90;;;;;;;0.40;100.00;99986.27;109528;1250;73876;-54
2024/03/24 00:15:54;;;;;;;30.90;19.50;;;;;;;0.32;100.00;99981.42;109583;1249;66320;-54
2024/03/24 00:18:21;;;;;;;32.10;19.10;;;;;;;0.26;100.00;99978.72;109524;1250;71686;-54
2024/03/24 00:20:50;;;;;;;35.10;20.10;;;;;;;0.18;100.00;99976.59;109509;1250;59678;-54
2024/03/24 00:23:17;;;;;;;33.30;18.70;;;;;;;0.11;100.00;99975.59;109502;1250;59382;-54
2024/03/24 00:25:45;;;;;;;35.40;20.30;;;;;;;0.06;100.00;99974.67;109568;1250;73428;-54
2024/03/24 00:28:12;;;;;;;33.10;20.00;;;;;;;0.02;100.00;99976.00;109551;1250;65110;-54
2024/03/24 00:30:40;;;;;;;33.70;20.70;;;;;;;-0.03;100.00;99966.46;109536;1250;72775;-54
2024/03/24 00:33:07;;;;;;;32.60;19.50;;;;;;;-0.06;100.00;99968.45;109532;1250;58974;-57
2024/03/24 00:35:35;;;;;;;33.20;19.00;;;;;;;-0.10;100.00;99964.30;109535;1250;60181;-54
2024/03/24 00:38:02;;;;;;;26.40;17.00;;;;;;;-0.13;100.00;99963.54;109542;1250;73992;-54
2024/03/24 00:40:30;;;;;;;30.50;17.20;;;;;;;-0.16;100.00;99964.80;109535;1250;69450;-54
2024/03/24 00:42:58;;;;;;;34.30;19.50;;;;;;;-0.18;100.00;99962.36;109535;1250;72727;-54
2024/03/24 00:45:26;;;;;;;33.00;18.10;;;;;;;-0.17;100.00;99963.86;109456;1251;59671;-54
2024/03/24 00:47:55;;;;;;;31.20;17.60;;;;;;;-0.19;100.00;99964.86;109480;1250;60119;-53
2024/03/24 00:50:22;;;;;;;30.70;18.50;;;;;;;-0.19;100.00;99966.74;109495;1249;74811;-54
2024/03/24 00:52:50;;;;;;;29.80;18.10;;;;;;;-0.21;100.00;99963.85;109446;1249;67034;-54
2024/03/24 00:55:17;;;;;;;29.10;16.40;;;;;;;-0.22;100.00;99968.90;109433;1250;72745;-55
2024/03/24 00:57:45;;;;;;;30.50;17.30;;;;;;;-0.26;100.00;99966.71;109493;1251;59361;-54
2024/03/24 01:00:12;;;;;;;28.50;17.60;;;;;;;-0.29;100.00;99965.10;109552;1249;58943;-53
2024/03/24 01:02:40;;;;;;;33.60;18.90;;;;;;;-0.31;100.00;99966.13;109520;1250;73415;-54
2024/03/24 01:05:07;;;;;;;34.60;18.30;;;;;;;-0.34;100.00;99967.20;109558;1249;66984;-54
2024/03/24 01:07:35;;;;;;;35.00;18.30;;;;;;;-0.35;100.00;99968.64;109437;1250;71442;-54
2024/03/24 01:10:02;;;;;;;32.40;19.00;;;;;;;-0.36;100.00;99966.54;109455;1250;59299;-54
2024/03/24 01:12:30;;;;;;;31.30;18.30;;;;;;;-0.36;100.00;99968.91;109489;1250;58941;-54
2024/03/24 01:14:57;;;;;;;28.40;17.20;;;;;;;-0.38;100.00;99968.87;109490;1250;74490;-53
2024/03/24 01:17:25;;;;;;;29.40;17.10;;;;;;;-0.39;100.00;99968.30;109514;1250;65231;-53
2024/03/24 01:19:52;;;;;;;32.50;18.10;;;;;;;-0.40;100.00;99974.55;109458;1252;71366;-54
2024/03/24 01:22:20;;;;;;;34.70;18.70;;;;;;;-0.43;100.00;99974.88;109478;1253;59850;-53
2024/03/24 01:24:47;;;;;;;37.10;19.80;;;;;;;-0.44;100.00;99977.61;109519;1249;60129;-54
2024/03/24 01:27:14;;;;;;;33.70;18.70;;;;;;;-0.46;100.00;99976.73;109543;1250;74625;-53
2024/03/24 01:29:42;;;;;;;31.70;18.90;;;;;;;-0.49;100.00;99977.45;109475;1250;65946;-56
2024/03/24 01:32:09;;;;;;;37.00;19.50;;;;;;;-0.52;100.00;99978.65;109525;1250;71410;-53
2024/03/24 01:34:37;;;;;;;31.40;18.30;;;;;;;-0.54;100.00;99981.76;109552;1250;59518;-54
2024/03/24 01:37:04;;;;;;;37.30;20.70;;;;;;;-0.57;100.00;99976.17;109510;1250;60057;-54
2024/03/24 01:39:32;;;;;;;39.00;21.40;;;;;;;-0.58;100.00;99975.39;109457;1250;73477;-57
2024/03/24 01:41:59;;;;;;;36.70;21.00;;;;;;;-0.59;100.00;99979.23;109478;1250;65652;-53
2024/03/24 01:44:26;;;;;;;36.00;20.90;;;;;;;-0.60;100.00;99980.85;109533;1251;71433;-57
2024/03/24 01:46:54;;;;;;;37.70;22.30;;;;;;;-0.63;100.00;99980.20;109531;1249;60920;-54
2024/03/24 01:49:22;;;;;;;35.40;19.80;;;;;;;-0.66;100.00;99979.45;109475;1250;59285;-57
2024/03/24 01:51:49;;;;;;;32.30;19.90;;;;;;;-0.70;100.00;99983.50;109539;1250;73510;-54
2024/03/24 01:54:17;;;;;;;32.30;18.50;;;;;;;-0.76;100.00;99979.99;109554;1251;66928;-54
2024/03/24 01:56:44;;;;;;;31.50;19.10;;;;;;;-0.81;100.00;99981.55;109423;1250;72894;-53
2024/03/24 01:59:11;;;;;;;31.00;17.40;;;;;;;-0.87;100.00;99982.55;109507;1250;59009;-53
2024/03/24 02:01:39;;;;;;;34.10;19.20;;;;;;;-0.93;100.00;99981.68;109503;1250;60130;-54
2024/03/24 02:04:07;;;;;;;31.30;19.10;;;;;;;-0.97;100.00;99984.16;109450;1250;74744;-53
2024/03/24 02:06:35;;;;;;;31.20;16.70;;;;;;;-1.01;100.00;99985.64;109476;1250;67095;-54
2024/03/24 02:09:03;;;;;;;35.50;19.10;;;;;;;-1.05;100.00;99980.39;109490;1254;73360;-53
2024/03/24 02:11:30;;;;;;;29.90;18.40;;;;;;;-1.11;100.00;99979.43;109467;1250;59682;-57
2024/03/24 02:13:58;;;;;;;34.40;17.80;;;;;;;-1.15;100.00;99982.80;109570;1250;59027;-54
2024/03/24 02:16:26;;;;;;;33.90;18.40;;;;;;;-1.20;100.00;99981.80;109506;1250;73609;-54
2024/03/24 02:18:53;;;;;;;31.40;17.10;;;;;;;-1.25;100.00;99983.20;109489;1250;67055;-53
2024/03/24 02:21:21;;;;;;;35.20;19.60;;;;;;;-1.29;100.00;99984.19;109513;1250;72922;-53
2024/03/24 02:23:48;;;;;;;34.10;19.20;;;;;;;-1.30;100.00;99984.77;109405;1250;59626;-57
2024/03/24 02:26:16;;;;;;;35.50;18.90;;;;;;;-1.31;100.00;99986.52;109521;1256;59446;-53
2024/03/24 02:28:44;;;;;;;31.90;18.90;;;;;;;-1.30;100.00;99990.54;109526;1251;74715;-54
2024/03/24 02:31:11;;;;;;;33.70;19.00;;;;;;;-1.29;100.00;99987.73;109493;1250;65616;-55
2024/03/24 02:33:39;;;;;;;35.10;19.60;;;;;;;-1.30;100.00;99985.44;109494;1253;72749;-54
2024/03/24 02:36:06;;;;;;;35.50;18.70;;;;;;;-1.33;100.00;99985.52;109445;1250;58954;-55
2024/03/24 02:38:34;;;;;;;32.00;17.70;;;;;;;-1.36;100.00;99987.27;109490;1251;60202;-54
2024/03/24 02:41:01;;;;;;;33.90;19.90;;;;;;;-1.39;100.00;99990.55;109528;1250;74674;-54
2024/03/24 02:43:29;;;;;;;40.80;21.30;;;;;;;-1.42;100.00;99995.02;109546;1250;66903;-53
2024/03/24 02:45:56;;;;;;;40.10;20.40;;;;;;;-1.44;100.00;99990.73;109495;1250;72356;-58
2024/03/24 02:48:24;;;;;;;37.30;20.50;;;;;;;-1.46;100.00;99994.61;109445;1252;59712;-55
2024/03/24 02:50:51;;;;;;;35.60;19.60;;;;;;;-1.47;100.00;99997.60;109445;1250;60078;-54
2024/03/24 02:53:18;;;;;;;34.10;19.80;;;;;;;-1.48;100.00;99999.73;109413;1249;75126;-55
2024/03/24 02:55:46;;;;;;;34.00;18.80;;;;;;;-1.49;100.00;100002.71;109496;1250;65770;-55
2024/03/24 02:58:14;;;;;;;41.00;19.20;;;;;;;-1.52;100.00;100001.69;109411;1249;72745;-55
2024/03/24 03:00:42;;;;;;;40.10;21.60;;;;;;;-1.52;100.00;99997.98;109481;1256;59584;-55
2024/03/24 03:03:09;;;;;;;38.60;20.30;;;;;;;-1.52;100.00;99996.45;109527;1250;60067;-55
2024/03/24 03:05:37;;;;;;;39.30;20.30;;;;;;;-1.53;100.00;99996.03;109533;1249;74726;-55
2024/03/24 03:08:06;;;;;;;32.00;18.30;;;;;;;-1.56;100.00;99994.33;109497;1249;66931;-59
2024/03/24 03:10:35;;;;;;;34.00;18.70;;;;;;;-1.58;100.00;99997.25;109437;1250;72702;-55
2024/03/24 03:13:04;;;;;;;34.20;19.50;;;;;;;-1.61;100.00;100000.56;109436;1251;59490;-55
2024/03/24 03:15:31;;;;;;;32.70;18.70;;;;;;;-1.65;100.00;100004.36;109537;1250;60250;-55
2024/03/24 03:17:59;;;;;;;35.20;18.30;;;;;;;-1.68;100.00;100003.73;109528;1250;73381;-54
2024/03/24 03:20:27;;;;;;;33.30;19.50;;;;;;;-1.71;100.00;100007.52;109506;1250;66998;-58
2024/03/24 03:22:55;;;;;;;38.90;20.20;;;;;;;-1.74;100.00;100007.55;109506;1252;72904;-55
2024/03/24 03:25:22;;;;;;;32.30;18.90;;;;;;;-1.75;100.00;100009.98;109498;1251;61090;-55
2024/03/24 03:27:50;;;;;;;31.80;17.80;;;;;;;-1.72;100.00;100010.84;109479;1251;58933;-54
2024/03/24 03:30:17;;;;;;;30.60;17.20;;;;;;;-1.67;100.00;100014.27;109466;1249;74710;-55
2024/03/24 03:32:45;;;;;;;31.10;16.80;;;;;;;-1.58;100.00;100015.45;109537;1250;65756;-55
2024/03/24 03:35:13;;;;;;;32.30;18.20;;;;;;;-1.49;100.00;100015.68;109503;1253;72709;-54
2024/03/24 03:37:40;;;;;;;32.20;18.10;;;;;;;-1.40;100.00;100019.27;109459;1249;59647;-54
2024/03/24 03:40:08;;;;;;;33.90;18.20;;;;;;;-1.24;100.00;100021.66;109500;1249;60092;-54
2024/03/24 03:42:36;;;;;;;32.20;17.40;;;;;;;-0.98;100.00;100023.98;109452;1256;74710;-55
2024/03/24 03:45:04;;;;;;;30.10;16.80;;;;;;;-0.66;100.00;100025.98;109551;1250;66994;-55
2024/03/24 03:47:31;;;;;;;31.30;17.70;;;;;;;-0.29;100.00;100024.19;109540;1250;71503;-54
2024/03/24 03:50:02;;;;;;;28.60;16.20;;;;;;;0.10;100.00;100019.95;109510;1250;59602;-56
2024/03/24 03:52:29;;;;;;;30.10;18.20;;;;;;;0.49;100.00;100018.19;109463;1250;60223;-55
2024/03/24 03:54:59;;;;;;;35.50;18.20;;;;;;;0.90;100.00;100018.48;109510;1254;74865;-54
2024/03/24 03:57:27;;;;;;;27.20;17.40;;;;;;;1.32;100.00;100019.00;109567;1250;66283;-55
2024/03/24 03:59:54;;;;;;;28.80;16.80;;;;;;;1.83;100.00;100017.25;109446;1251;71237;-55
2024/03/24 04:02:22;;;;;;;27.30;17.60;;;;;;;2.40;100.00;100020.52;109513;1251;59409;-54
2024/03/24 04:04:49;;;;;;;27.70;17.00;;;;;;;3.00;100.00;100020.09;109422;1249;59298;-56
2024/03/24 04:07:17;;;;;;;27.50;16.20;;;;;;;3.65;100.00;100022.48;109473;1251;74842;-55
2024/03/24 04:09:44;;;;;;;26.40;15.50;;;;;;;4.31;100.00;100015.48;109508;1251;66868;-55
2024/03/24 04:12:12;;;;;;;24.60;14.60;;;;;;;4.97;100.00;100004.98;109459;1250;72689;-55
2024/03/24 04:14:39;;;;;;;26.90;16.90;;;;;;;5.56;100.00;99999.92;109470;1254;60200;-58
2024/03/24 04:17:06;;;;;;;23.90;16.00;;;;;;;6.03;100.00;99988.35;109470;1251;60036;-55
2024/03/24 04:19:34;;;;;;;25.30;16.60;;;;;;;6.34;100.00;99973.36;109451;1251;75439;-55
2024/03/24 04:22:01;;;;;;;24.60;16.20;;;;;;;6.66;100.00;99963.06;109500;1249;66783;-55
2024/03/24 04:24:29;;;;;;;26.40;18.10;;;;;;;6.94;100.00;99945.27;109544;1251;70855;-55
2024/03/24 04:26:56;;;;;;;25.50;16.50;;;;;;;7.24;100.00;99936.41;109454;1251;59829;-59
2024/03/24 04:29:23;;;;;;;25.80;17.10;;;;;;;7.70;100.00;99927.10;109493;1251;60145;-55
2024/03/24 04:31:51;;;;;;;26.30;17.00;;;;;;;8.16;100.00;99916.89;109437;1252;75517;-56
2024/03/24 04:34:19;;;;;;;25.70;16.80;;;;;;;8.62;100.00;99908.44;109458;1251;67003;-56
2024/03/24 04:36:46;;;;;;;24.70;16.20;;;;;;;9.09;100.00;99911.27;109316;1251;72772;-55
2024/03/24 04:39:18;;;;;;;24.90;18.70;;;;;;;9.63;100.00;99906.15;109434;1251;59825;-55
2024/03/24 04:41:47;;;;;;;24.00;17.30;;;;;;;10.35;100.00;99896.16;109436;1251;60280;-55
2024/03/24 04:44:14;;;;;;;24.90;17.80;;;;;;;11.08;100.00;99898.70;109453;1251;74177;-55
2024/03/24 04:46:42;;;;;;;23.40;16.60;;;;;;;11.65;100.00;99896.39;109492;1251;66919;-56
2024/03/24 04:49:10;;;;;;;24.30;16.80;;;;;;;12.09;100.00;99890.77;109438;1251;71540;-59
2024/03/24 04:51:39;;;;;;;27.30;18.80;;;;;;;12.32;100.00;99885.79;109467;1254;60083;-55
2024/03/24 04:54:06;;;;;;;25.20;16.80;;;;;;;12.57;95.82;99888.91;109500;1254;60058;-57
2024/03/24 04:56:35;;;;;;;20.30;15.10;;;;;;;12.80;86.69;99885.03;109438;1256;75748;-56
2024/03/24 04:59:03;;;;;;;21.70;15.00;;;;;;;13.11;81.33;99887.92;109410;1251;65797;-56
2024/03/24 05:01:30;;;;;;;22.80;16.40;;;;;;;13.48;74.47;99885.48;109457;1251;71622;-56
2024/03/24 05:03:58;;;;;;;19.20;15.60;;;;;;;13.90;68.21;99880.58;109523;1251;60112;-56
2024/03/24 05:06:27;;;;;;;27.00;18.70;;;;;;;14.16;62.51;99886.92;109448;1251;59710;-56
2024/03/24 05:08:54;;;;;;;24.50;16.30;;;;;;;14.33;58.38;99882.70;109460;1251;75456;-56
2024/03/24 05:11:23;;;;;;;18.70;14.90;;;;;;;14.56;56.73;99881.25;109405;1251;67991;-56
2024/03/24 05:13:50;;;;;;;26.70;17.60;;;;;;;14.79;54.09;99885.23;109457;1251;72663;-54
2024/03/24 05:16:19;;;;;;;27.80;18.60;;;;;;;14.73;51.59;99880.38;109559;1251;60144;-53
2024/03/24 05:18:47;;;;;;;24.80;17.90;;;;;;;14.35;50.80;99883.96;109439;1251;60088;-53
2024/03/24 05:21:14;;;;;;;26.00;17.50;;;;;;;13.87;51.08;99886.33;109404;1254;74213;-54
2024/03/24 05:23:41;;;;;;;24.10;18.30;;;;;;;13.43;52.75;99885.13;109465;1251;67199;-53
2024/03/24 05:26:09;;;;;;;22.80;17.60;;;;;;;13.06;53.54;99883.43;109459;1253;72722;-53
2024/03/24 05:28:36;;;;;;;25.60;17.10;;;;;;;12.65;54.60;99881.12;109491;1251;59707;-54
2024/03/24 05:31:20;;;;;;;27.10;16.90;;;;;;;12.16;56.22;99880.20;109464;1251;60495;-54
2024/03/24 05:33:48;;;;;;;27.40;17.50;;;;;;;11.76;58.48;99884.89;109475;1251;74202;-54
2024/03/24 05:36:15;;;;;;;20.00;15.50;;;;;;;11.43;61.78;99889.55;109487;1251;66913;-54
2024/03/24 05:38:43;;;;;;;25.10;17.10;;;;;;;11.12;64.06;99890.51;109472;1251;71310;-56
2024/03/24 05:41:11;;;;;;;24.00;16.70;;;;;;;10.82;67.66;99894.52;109422;1254;60175;-58
2024/03/24 05:43:39;;;;;;;28.20;17.40;;;;;;;10.60;71.89;99895.48;109546;1251;61124;-55
2024/03/24 05:46:07;;;;;;;30.10;20.00;;;;;;;10.45;75.29;99896.04;109491;1251;75540;-55
2024/03/24 05:48:34;;;;;;;29.10;20.40;;;;;;;10.29;78.63;99899.16;109588;1251;66921;-55
2024/03/24 05:51:04;;;;;;;28.60;19.20;;;;;;;10.21;83.89;99898.20;109464;1251;71119;-56
2024/03/24 05:53:32;;;;;;;20.90;15.10;;;;;;;10.22;86.51;99893.98;109436;1251;60129;-55
2024/03/24 05:56:00;;;;;;;20.20;14.40;;;;;;;10.26;90.40;99897.17;109485;1251;60235;-55
2024/03/24 05:58:28;;;;;;;18.90;14.20;;;;;;;10.38;91.33;99894.79;109493;1251;76079;-55
2024/03/24 06:00:56;;;;;;;20.20;13.40;;;;;;;10.48;87.30;99889.40;109485;1251;66906;-55
2024/03/24 06:03:24;;;;;;;22.80;15.40;;;;;;;10.53;86.69;99883.89;109368;1251;72846;-57
2024/03/24 06:05:52;;;;;;;19.80;13.90;;;;;;;10.55;84.98;99885.42;109443;1251;60075;-55
2024/03/24 06:08:19;;;;;;;21.80;13.80;;;;;;;10.53;85.30;99891.52;109474;1251;59749;-55
2024/03/24 06:10:49;;;;;;;20.90;14.50;;;;;;;10.51;84.74;99891.46;109463;1251;75608;-55
2024/03/24 06:13:16;;;;;;;24.10;16.20;;;;;;;10.53;85.80;99893.48;109412;1251;65712;-59
2024/03/24 06:15:45;;;;;;;24.00;15.60;;;;;;;10.60;86.80;99891.76;109411;1251;73148;-55
2024/03/24 06:18:12;;;;;;;19.60;13.50;;;;;;;10.74;85.61;99898.14;109428;1251;59815;-56
2024/03/24 06:20:39;;;;;;;19.70;13.50;;;;;;;10.84;84.54;99900.02;109459;1251;60203;-56
2024/03/24 06:23:07;;;;;;;20.30;15.00;;;;;;;11.14;84.86;99900.02;109469;1251;76005;-56
2024/03/24 06:25:34;;;;;;;21.80;16.10;;;;;;;11.63;80.12;99905.02;109503;1251;67091;-56
2024/03/24 06:28:03;;;;;;;22.20;14.70;;;;;;;11.97;73.70;99894.59;109462;1251;72685;-56
2024/03/24 06:30:30;;;;;;;19.60;14.50;;;;;;;12.31;72.30;99892.52;109465;1251;60107;-57
2024/03/24 06:32:58;;;;;;;20.20;14.10;;;;;;;12.84;69.98;99889.55;109443;1251;59806;-56
2024/03/24 06:35:25;;;;;;;17.30;12.50;;;;;;;13.44;65.13;99888.30;109466;1251;74216;-56
2024/03/24 06:37:53;;;;;;;16.50;12.60;;;;;;;13.98;58.53;99884.87;109398;1251;67092;-57
2024/03/24 06:40:20;;;;;;;14.90;12.00;;;;;;;14.37;54.80;99878.31;109392;1251;72706;-56
2024/03/24 06:43:00;;;;;;;19.10;13.80;;;;;;;14.60;51.63;99879.55;109442;1251;60737;-56
2024/03/24 06:45:31;;;;;;;17.80;13.70;;;;;;;14.74;50.86;99882.94;109424;1251;59791;-59
2024/03/24 06:48:00;;;;;;;18.10;13.20;;;;;;;15.03;50.19;99884.91;109466;1251;75539;-54
2024/03/24 06:50:27;;;;;;;17.80;13.40;;;;;;;15.20;48.00;99887.61;109477;1251;65761;-54
2024/03/24 06:52:56;;;;;;;17.50;13.30;;;;;;;15.14;47.88;99889.75;109401;1251;73165;-56
2024/03/24 06:55:26;;;;;;;14.60;12.00;;;;;;;15.19;47.62;99889.16;109403;1251;60306;-55
2024/03/24 06:57:54;;;;;;;19.50;12.80;;;;;;;15.26;46.90;99879.89;109465;1253;60036;-56
2024/03/24 07:00:21;;;;;;;15.70;12.90;;;;;;;15.33;46.94;99883.43;109412;1254;75534;-56
2024/03/24 07:02:49;;;;;;;16.50;13.60;;;;;;;15.46;46.61;99882.88;109404;1251;65798;-54
2024/03/24 07:05:17;;;;;;;17.00;13.00;;;;;;;15.54;46.59;99879.41;109376;1251;71455;-54
2024/03/24 07:07:44;;;;;;;15.40;11.90;;;;;;;15.74;45.81;99874.05;109329;1251;60070;-56
2024/03/24 07:10:12;;;;;;;14.90;12.50;;;;;;;15.80;45.12;99873.88;109448;1252;60105;-56
2024/03/24 07:12:39;;;;;;;15.30;13.10;;;;;;;15.73;45.13;99876.61;109358;1253;75501;-56
2024/03/24 07:15:07;;;;;;;18.50;13.00;;;;;;;15.81;45.41;99876.57;109364;1251;65642;-56
2024/03/24 07:17:35;;;;;;;16.30;13.10;;;;;;;15.96;45.22;99869.98;109313;1252;74796;-57
2024/03/24 07:20:04;;;;;;;17.80;13.00;;;;;;;16.11;44.85;99869.90;109333;1251;59913;-55
2024/03/24 07:22:31;;;;;;;17.70;12.80;;;;;;;16.23;44.79;99866.48;109411;1251;61066;-54
2024/03/24 07:24:58;;;;;;;17.50;14.10;;;;;;;16.44;44.37;99866.52;109380;1251;73519;-55
2024/03/24 07:27:26;;;;;;;16.30;12.40;;;;;;;16.64;43.62;99866.46;109403;1252;65614;-55
2024/03/24 07:29:53;;;;;;;16.00;11.90;;;;;;;16.76;43.05;99861.88;109324;1251;72733;-54
2024/03/24 07:32:21;;;;;;;16.40;11.90;;;;;;;16.86;42.01;99862.09;109416;1253;61155;-55
2024/03/24 07:34:49;;;;;;;14.30;11.30;;;;;;;16.86;41.48;99862.88;109436;1251;61627;-56
2024/03/24 07:37:16;;;;;;;19.50;12.80;;;;;;;16.79;41.01;99862.48;109363;1251;78028;-54
2024/03/24 07:39:44;;;;;;;17.30;10.30;;;;;;;16.69;40.38;99859.62;109379;1252;68053;-55
2024/03/24 07:42:11;;;;;;;20.00;13.00;;;;;;;16.43;40.14;99852.24;109323;1252;74429;-55
2024/03/24 07:44:40;;;;;;;12.30;10.20;;;;;;;16.08;41.21;99856.95;109415;1251;62685;-53
2024/03/24 07:47:08;;;;;;;15.60;10.90;;;;;;;15.94;41.80;99855.79;109434;1252;62544;-55
2024/03/24 07:49:36;;;;;;;13.30;9.40;;;;;;;15.89;42.53;99856.63;109417;1251;77534;-54
2024/03/24 07:52:04;;;;;;;11.00;7.60;;;;;;;15.93;42.96;99855.51;109374;1251;69479;-57
2024/03/24 07:54:32;;;;;;;10.40;7.60;;;;;;;15.83;43.58;99851.02;109415;1251;74895;-54
2024/03/24 07:56:59;;;;;;;9.30;7.20;;;;;;;15.83;44.21;99850.81;109400;1254;62708;-54
2024/03/24 07:59:27;;;;;;;9.60;6.60;;;;;;;15.93;44.37;99846.26;109464;1250;62602;-54
2024/03/24 08:01:55;;;;;;;10.10;7.10;;;;;;;16.08;44.44;99842.91;109451;1250;77549;-55
2024/03/24 08:04:23;;;;;;;10.60;8.20;;;;;;;16.26;44.11;99842.27;109483;1250;65239;-56
2024/03/24 08:06:51;;;;;;;9.50;7.00;;;;;;;16.41;44.00;99840.36;109434;1252;72716;-54
2024/03/24 08:09:18;;;;;;;8.20;6.30;;;;;;;16.64;43.74;99839.52;109470;1250;62765;-54
2024/03/24 08:11:46;;;;;;;8.50;6.40;;;;;;;16.72;42.80;99842.47;109498;1250;61482;-54
2024/03/24 08:14:13;;;;;;;8.30;6.00;;;;;;;16.64;43.06;99836.48;109452;1251;77775;-57
2024/03/24 08:16:41;;;;;;;10.00;6.70;;;;;;;16.75;43.01;99834.64;109442;1249;66105;-54
2024/03/24 08:19:08;;;;;;;8.50;6.00;;;;;;;16.88;42.78;99826.70;109445;1250;74755;-54
2024/03/24 08:21:36;;;;;;;11.80;6.60;;;;;;;16.98;42.71;99824.98;109368;1249;60307;-54
2024/03/24 08:24:04;;;;;;;7.50;6.40;;;;;;;16.84;43.12;99826.92;109430;1250;60336;-59
2024/03/24 08:26:31;;;;;;;13.40;5.70;;;;;;;16.82;43.95;99820.74;109435;1250;78047;-55
2024/03/24 08:28:59;;;;;;;11.90;5.50;;;;;;;16.90;43.71;99832.48;109308;1249;67947;-55
2024/03/24 08:31:27;;;;;;;7.40;4.70;;;;;;;16.79;43.63;99832.98;109455;1249;75335;-55
2024/03/24 08:33:54;;;;;;;6.60;4.10;;;;;;;16.64;44.23;99830.56;109386;1251;60653;-59
2024/03/24 08:36:22;;;;;;;5.70;4.00;;;;;;;16.69;45.02;99832.27;109510;1249;59711;-56
2024/03/24 08:38:49;;;;;;;7.50;4.80;;;;;;;16.90;44.80;99828.06;109485;1249;78001;-56
2024/03/24 08:41:18;;;;;;;7.10;3.90;;;;;;;16.97;43.77;99826.91;109503;1252;69548;-55
2024/03/24 08:43:45;;;;;;;11.60;3.60;;;;;;;16.81;43.43;99833.23;109423;1250;74193;-55
2024/03/24 08:46:13;;;;;;;7.50;4.00;;;;;;;16.50;42.96;99834.30;109418;1250;60616;-58
2024/03/24 08:48:41;;;;;;;7.60;4.10;;;;;;;16.18;43.43;99835.50;109478;1250;62537;-55
2024/03/24 08:51:13;;;;;;;5.80;4.00;;;;;;;16.10;43.82;99827.08;109453;1250;77186;-55
2024/03/24 08:53:41;;;;;;;7.60;4.20;;;;;;;16.15;43.93;99828.88;109499;1249;68884;-55
2024/03/24 08:56:08;;;;;;;12.00;4.70;;;;;;;16.24;43.75;99829.98;109399;1253;74913;-56
2024/03/24 08:58:36;;;;;;;7.50;4.80;;;;;;;16.19;43.74;99832.13;109455;1250;62361;-56
2024/03/24 09:01:04;;;;;;;11.20;6.10;;;;;;;16.03;43.86;99822.35;109443;1250;62844;-55
2024/03/24 09:03:31;;;;;;;7.90;5.10;;;;;;;15.91;44.97;99830.85;109414;1251;77962;-55
2024/03/24 09:05:59;;;;;;;8.40;6.00;;;;;;;16.02;44.94;99826.00;109437;1250;67441;-56
2024/03/24 09:08:26;;;;;;;7.40;6.10;;;;;;;16.08;44.92;99826.23;109426;1251;72793;-58
2024/03/24 09:10:54;;;;;;;8.10;6.00;;;;;;;15.99;44.93;99821.48;109439;1251;62422;-55
2024/03/24 09:13:21;;;;;;;10.50;6.50;;;;;;;15.79;45.93;99822.75;109437;1251;62529;-54
2024/03/24 09:15:49;;;;;;;12.90;6.50;;;;;;;15.75;47.10;99822.56;109436;1251;76406;-55
2024/03/24 09:18:17;;;;;;;9.50;6.80;;;;;;;15.85;47.19;99818.77;109424;1250;67823;-55
2024/03/24 09:20:44;;;;;;;9.70;7.50;;;;;;;15.83;47.45;99816.75;109389;1251;75236;-56
2024/03/24 09:23:12;;;;;;;9.90;7.00;;;;;;;15.78;48.02;99816.41;109424;1251;62556;-55
2024/03/24 09:25:39;;;;;;;10.10;6.40;;;;;;;15.77;48.70;99809.89;109367;1251;59685;-55
2024/03/24 09:28:07;;;;;;;9.40;5.60;;;;;;;15.86;49.52;99802.98;109456;1250;75607;-55
2024/03/24 09:30:35;;;;;;;9.30;5.30;;;;;;;16.03;49.45;99801.75;109431;1251;68879;-58
2024/03/24 09:33:03;;;;;;;10.90;6.30;;;;;;;16.11;48.83;99797.33;109424;1251;73044;-54
2024/03/24 09:35:31;;;;;;;8.70;6.40;;;;;;;16.04;49.35;99792.08;109406;1250;61084;-55
2024/03/24 09:37:59;;;;;;;9.80;6.60;;;;;;;16.05;49.74;99790.43;109408;1250;62773;-55
2024/03/24 09:40:26;;;;;;;11.50;7.70;;;;;;;16.03;50.38;99795.65;109388;1251;77953;-55
2024/03/24 09:42:54;;;;;;;10.40;6.90;;;;;;;16.12;51.06;99795.04;109462;1250;69795;-58
2024/03/24 09:45:22;;;;;;;10.80;8.00;;;;;;;16.18;51.34;99792.55;109399;1251;75483;-55
2024/03/24 09:47:49;;;;;;;11.90;8.10;;;;;;;16.25;51.57;99782.45;109311;1251;60101;-56
2024/03/24 09:50:17;;;;;;;10.70;6.60;;;;;;;16.39;51.07;99783.77;109451;1250;61943;-56
2024/03/24 09:52:44;;;;;;;13.00;7.40;;;;;;;16.47;51.24;99780.81;109321;1250;77552;-56
2024/03/24 09:55:15;;;;;;;10.50;6.90;;;;;;;16.57;51.09;99780.48;109365;1251;69439;-55
2024/03/24 09:57:43;;;;;;;11.80;7.80;;;;;;;16.72;50.42;99776.10;109437;1250;75786;-55
2024/03/24 10:00:12;;;;;;;11.90;6.40;;;;;;;16.86;50.98;99775.23;109450;1251;59965;-56
2024/03/24 10:02:42;;;;;;;11.00;7.40;;;;;;;17.02;49.11;99766.23;109244;1250;62913;-54
2024/03/24 10:05:10;;;;;;;9.40;6.30;;;;;;;16.71;48.17;99776.45;109352;1256;78015;-56
2024/03/24 10:07:37;;;;;;;11.50;7.50;;;;;;;16.29;49.70;99769.09;109360;1251;69542;-56
2024/03/24 10:10:06;;;;;;;10.40;6.70;;;;;;;15.99;51.39;99771.33;109435;1250;75303;-55
2024/03/24 10:12:34;;;;;;;11.50;7.60;;;;;;;15.77;53.73;99761.17;109380;1250;63267;-59
2024/03/24 10:15:26;;;;;;;11.80;7.50;;;;;;;15.76;56.12;99758.31;109381;1251;61469;-55
2024/03/24 10:18:04;;;;;;;13.30;7.80;;;;;;;15.93;56.84;99753.61;109395;1250;75553;-55
2024/03/24 10:20:32;;;;;;;9.50;6.60;;;;;;;16.12;56.76;99747.08;109395;1251;68280;-54
2024/03/24 10:23:01;;;;;;;10.20;7.00;;;;;;;16.32;55.35;99742.49;109451;1251;74399;-55
2024/03/24 10:25:29;;;;;;;9.30;6.10;;;;;;;16.46;55.48;99737.18;109439;1250;61625;-56
2024/03/24 10:27:57;;;;;;;8.60;6.10;;;;;;;16.69;54.63;99728.79;109447;1251;62583;-55
2024/03/24 10:30:25;;;;;;;11.90;7.40;;;;;;;16.96;53.40;99719.10;109434;1251;77336;-55
2024/03/24 10:32:52;;;;;;;10.20;6.40;;;;;;;17.24;51.24;99714.06;109470;1251;69486;-55
2024/03/24 10:35:20;;;;;;;9.80;5.50;;;;;;;17.34;50.05;99711.55;109418;1251;75420;-55
2024/03/24 10:37:48;;;;;;;7.90;4.90;;;;;;;17.28;49.03;99709.66;109461;1251;61201;-55
2024/03/24 10:40:16;;;;;;;11.50;6.40;;;;;;;17.00;48.60;99703.73;109478;1250;61521;-55
2024/03/24 10:42:46;;;;;;;9.30;5.80;;;;;;;16.72;49.64;99701.89;109394;1251;76252;-55
2024/03/24 10:45:15;;;;;;;8.70;5.20;;;;;;;16.75;50.26;99693.41;109425;1251;69386;-58
2024/03/24 10:47:42;;;;;;;10.50;5.30;;;;;;;16.93;49.54;99690.25;109408;1252;74696;-54
2024/03/24 10:50:13;;;;;;;8.60;4.50;;;;;;;17.02;48.09;99687.55;109354;1251;59776;-54
2024/03/24 10:52:42;;;;;;;11.10;5.50;;;;;;;16.96;47.36;99674.45;109450;1251;62508;-56
2024/03/24 10:55:10;;;;;;;9.00;5.50;;;;;;;16.97;47.18;99675.73;109479;1250;75527;-55
2024/03/24 10:57:39;;;;;;;9.80;5.10;;;;;;;16.91;46.86;99674.90;109437;1251;69521;-55
2024/03/24 11:00:10;;;;;;;10.30;5.90;;;;;;;16.71;47.53;99673.39;109373;1251;74234;-55
2024/03/24 11:02:38;;;;;;;9.60;6.00;;;;;;;16.61;48.72;99665.89;109385;1250;61120;-56
2024/03/24 11:05:07;;;;;;;19.00;16.20;;;;;;;16.60;48.83;99664.77;109358;1251;60062;-55
2024/03/24 11:07:37;;;;;;;9.70;7.60;;;;;;;16.52;49.02;99654.54;109498;1252;77948;-55
2024/03/24 11:10:07;;;;;;;8.20;4.80;;;;;;;16.60;49.31;99651.25;109452;1251;68268;-55
2024/03/24 11:12:35;;;;;;;7.90;3.90;;;;;;;16.84;49.01;99640.56;109307;1251;73360;-59